createdAt,value
2022-12-15T00:03:48.239Z,99237
2022-12-15T00:08:47.908Z,99237
2022-12-15T00:13:48.081Z,99253
2022-12-15T00:18:47.961Z,99254
2022-12-15T00:23:48.050Z,99259
2022-12-15T00:28:47.927Z,99259
2022-12-15T00:33:48.017Z,99270
2022-12-15T00:38:47.926Z,99270
2022-12-15T00:43:47.987Z,99268
2022-12-15T00:48:48.149Z,99262
2022-12-15T00:53:47.959Z,99262
2022-12-15T00:58:48.110Z,99269
2022-12-15T01:03:48.035Z,99258
2022-12-15T01:08:48.068Z,99255
2022-12-15T01:13:49.585Z,99254
2022-12-15T01:23:47.949Z,99267
2022-12-15T01:28:48.006Z,99270
2022-12-15T01:33:48.150Z,99281
2022-12-15T01:38:53.722Z,99276
2022-12-15T01:43:49.934Z,99268
2022-12-15T01:48:47.973Z,99258
2022-12-15T01:53:50.182Z,99259
2022-12-15T01:58:47.959Z,99265
2022-12-15T02:03:47.961Z,99265
2022-12-15T02:08:47.971Z,99262
2022-12-15T02:13:49.797Z,99262
2022-12-15T02:18:47.979Z,99267
2022-12-15T02:23:47.950Z,99258
2022-12-15T02:28:47.978Z,99263
2022-12-15T02:33:47.995Z,99265
2022-12-15T02:38:48.287Z,99275
2022-12-15T02:43:47.954Z,99280
2022-12-15T02:48:48.102Z,99270
2022-12-15T02:53:47.989Z,99277
2022-12-15T02:58:48.045Z,99282
2022-12-15T03:03:48.273Z,99279
2022-12-15T03:13:49.872Z,99289
2022-12-15T03:18:47.993Z,99299
2022-12-15T03:23:48.108Z,99304
2022-12-15T03:28:48.072Z,99305
2022-12-15T03:33:48.096Z,99307
2022-12-15T03:38:47.998Z,99307
2022-12-15T03:43:49.679Z,99298
2022-12-15T03:48:48.183Z,99305
2022-12-15T03:53:48.006Z,99309
2022-12-15T03:58:48.008Z,99311
2022-12-15T04:03:48.167Z,99320
2022-12-15T04:08:49.729Z,99332
2022-12-15T04:13:47.989Z,99330
2022-12-15T04:18:48.199Z,99322
2022-12-15T04:23:48.003Z,99339
2022-12-15T04:28:48.044Z,99337
2022-12-15T04:33:48.003Z,99333
2022-12-15T04:38:50.541Z,99338
2022-12-15T04:43:48.203Z,99345
2022-12-15T04:48:48.047Z,99366
2022-12-15T04:53:48.000Z,99378
2022-12-15T05:03:48.157Z,99387
2022-12-15T05:08:50.005Z,99387
2022-12-15T05:13:48.031Z,99396
2022-12-15T05:18:48.055Z,99409
2022-12-15T05:23:48.027Z,99425
2022-12-15T05:28:48.029Z,99432
2022-12-15T05:33:48.031Z,99423
2022-12-15T05:38:48.040Z,99434
2022-12-15T05:43:48.027Z,99448
2022-12-15T05:48:48.186Z,99452
2022-12-15T05:53:48.002Z,99473
2022-12-15T05:58:48.258Z,99475
2022-12-15T06:03:48.067Z,99484
2022-12-15T06:08:50.047Z,99486
2022-12-15T06:13:48.519Z,99518
2022-12-15T06:18:49.912Z,99518
2022-12-15T06:23:48.219Z,99543
2022-12-15T06:28:48.040Z,99538
2022-12-15T06:33:48.185Z,99553
2022-12-15T06:38:49.862Z,99543
2022-12-15T06:43:48.036Z,99535
2022-12-15T06:48:48.089Z,99535
2022-12-15T06:53:48.076Z,99543
2022-12-15T06:58:48.263Z,99568
2022-12-15T07:03:48.544Z,99574
2022-12-15T07:08:48.068Z,99574
2022-12-15T07:13:48.073Z,99576
2022-12-15T07:18:48.079Z,99584
2022-12-15T07:23:56.024Z,99609
2022-12-15T07:28:48.080Z,99610
2022-12-15T07:33:48.086Z,99623
2022-12-15T07:38:50.604Z,99627
2022-12-15T07:43:48.361Z,99617
2022-12-15T07:48:50.486Z,99627
2022-12-15T07:53:48.053Z,99625
2022-12-15T07:58:48.110Z,99629
2022-12-15T08:03:48.226Z,99638
2022-12-15T08:08:50.424Z,99642
2022-12-15T08:14:03.897Z,99630
2022-12-15T08:18:48.092Z,99670
2022-12-15T08:23:48.170Z,99670
2022-12-15T08:28:48.098Z,99686
2022-12-15T08:38:48.262Z,99687
2022-12-15T08:43:49.221Z,99694
2022-12-15T08:48:48.507Z,99695
2022-12-15T08:53:48.711Z,99695
2022-12-15T08:58:48.188Z,99716
2022-12-15T09:03:48.105Z,99710
2022-12-15T09:08:50.292Z,99712
2022-12-15T09:13:48.125Z,99722
2022-12-15T09:18:48.134Z,99722
2022-12-15T09:23:48.300Z,99715
2022-12-15T09:28:50.159Z,99718
2022-12-15T09:33:48.124Z,99713
2022-12-15T09:38:48.121Z,99710
2022-12-15T09:43:48.273Z,99712
2022-12-15T09:48:48.141Z,99713
2022-12-15T09:53:55.580Z,99705
2022-12-15T09:58:50.632Z,99703
2022-12-15T10:03:48.204Z,99694
2022-12-15T10:08:50.469Z,99674
2022-12-15T10:13:48.146Z,99692
2022-12-15T10:18:48.140Z,99688
2022-12-15T10:23:48.169Z,99695
2022-12-15T10:33:48.711Z,99706
2022-12-15T10:38:50.595Z,99690
2022-12-15T10:43:48.158Z,99690
2022-12-15T10:48:48.776Z,99702
2022-12-15T10:53:50.561Z,99696
2022-12-15T10:58:50.209Z,99696
2022-12-15T11:03:48.332Z,99699
2022-12-15T11:08:48.154Z,99680
2022-12-15T11:13:48.149Z,99682
2022-12-15T11:18:48.638Z,99705
2022-12-15T11:23:48.703Z,99700
2022-12-15T11:28:48.184Z,99688
2022-12-15T11:33:49.233Z,99692
2022-12-15T11:38:48.268Z,99689
2022-12-15T11:43:50.320Z,99699
2022-12-15T11:48:48.849Z,99711
2022-12-15T11:53:49.345Z,99701
2022-12-15T11:58:48.639Z,99709
2022-12-15T12:03:48.190Z,99716
2022-12-15T12:08:48.274Z,99722
2022-12-15T12:13:48.172Z,99722
2022-12-15T12:18:50.373Z,99716
2022-12-15T12:23:48.146Z,99717
2022-12-15T12:28:48.907Z,99713
2022-12-15T12:33:48.580Z,99712
2022-12-15T12:38:50.468Z,99705
2022-12-15T12:43:50.266Z,99697
2022-12-15T12:58:48.549Z,99692
2022-12-15T13:03:48.263Z,99716
2022-12-15T13:08:51.020Z,99718
2022-12-15T13:18:48.212Z,99721
2022-12-15T13:23:50.354Z,99727
2022-12-15T13:33:48.786Z,99733
2022-12-15T13:38:48.210Z,99733
2022-12-15T13:43:48.225Z,99728
2022-12-15T13:53:49.729Z,99737
2022-12-15T13:58:48.227Z,99742
2022-12-15T14:03:48.503Z,99746
2022-12-15T14:08:50.826Z,99744
2022-12-15T14:13:52.335Z,99742
2022-12-15T14:18:48.228Z,99748
2022-12-15T14:24:36.308Z,99747
2022-12-15T14:28:48.260Z,99752
2022-12-15T14:33:50.765Z,99736
2022-12-15T14:38:48.205Z,99741
2022-12-15T14:43:48.275Z,99731
2022-12-15T14:48:48.416Z,99737
2022-12-15T14:53:48.222Z,99742
2022-12-15T14:58:48.260Z,99742
2022-12-15T15:03:05.231Z,99724
2022-12-15T15:03:10.166Z,99692
2022-12-15T15:03:12.901Z,99696
2022-12-15T15:03:48.210Z,99743
2022-12-15T15:08:48.357Z,99765
2022-12-15T15:13:48.226Z,99749
2022-12-15T15:18:48.267Z,99777
2022-12-15T15:23:48.261Z,99775
2022-12-15T15:28:48.267Z,99763
2022-12-15T15:33:48.506Z,99748
2022-12-15T15:38:48.217Z,99754
2022-12-15T15:43:48.271Z,99748
2022-12-15T15:48:48.296Z,99726
2022-12-15T15:53:48.298Z,99734
2022-12-15T15:58:48.264Z,99733
2022-12-15T16:03:48.459Z,99732
2022-12-15T16:08:48.224Z,99728
2022-12-15T16:13:48.328Z,99715
2022-12-15T16:18:48.267Z,99715
2022-12-15T16:23:48.291Z,99747
2022-12-15T16:28:48.371Z,99747
2022-12-15T16:33:48.274Z,99742
2022-12-15T16:38:48.271Z,99733
2022-12-15T16:43:48.465Z,99733
2022-12-15T16:48:48.501Z,99760
2022-12-15T16:53:48.306Z,99755
2022-12-15T16:58:49.036Z,99757
2022-12-15T17:03:48.534Z,99764
2022-12-15T17:08:48.263Z,99770
2022-12-15T17:13:48.599Z,99783
2022-12-15T17:18:48.322Z,99787
2022-12-15T17:23:48.395Z,99777
2022-12-15T17:33:48.427Z,99780
2022-12-15T17:38:48.282Z,99781
2022-12-15T17:44:04.298Z,99775
2022-12-15T17:48:48.494Z,99790
2022-12-15T17:53:48.296Z,99773
2022-12-15T17:58:48.564Z,99773
2022-12-15T18:03:48.620Z,99764
2022-12-15T18:08:48.616Z,99769
2022-12-15T18:13:48.325Z,99764
2022-12-15T18:18:48.693Z,99762
2022-12-15T18:23:48.548Z,99762
2022-12-15T18:28:50.056Z,99751
2022-12-15T18:33:48.556Z,99758
2022-12-15T18:38:48.387Z,99774
2022-12-15T18:43:48.384Z,99774
2022-12-15T18:48:48.427Z,99772
2022-12-15T18:53:48.559Z,99779
2022-12-15T18:58:49.414Z,99769
2022-12-15T19:03:48.363Z,99772
2022-12-15T19:08:48.360Z,99770
2022-12-15T19:18:48.670Z,99759
2022-12-15T19:23:48.409Z,99758
2022-12-15T19:28:48.505Z,99758
2022-12-15T19:33:48.349Z,99742
2022-12-15T19:38:48.739Z,99737
2022-12-15T19:43:48.538Z,99754
2022-12-15T19:48:48.699Z,99747
2022-12-15T19:53:48.590Z,99747
2022-12-15T19:58:48.598Z,99744
2022-12-15T20:03:48.760Z,99727
2022-12-15T20:08:48.495Z,99716
2022-12-15T20:13:48.555Z,99700
2022-12-15T20:18:49.733Z,99696
2022-12-15T20:23:48.732Z,99679
2022-12-15T20:28:48.384Z,99668
2022-12-15T20:33:48.714Z,99658
2022-12-15T20:38:49.154Z,99658
2022-12-15T20:43:48.672Z,99661
2022-12-15T20:48:48.804Z,99665
2022-12-15T20:53:48.364Z,99670
2022-12-15T20:58:48.566Z,99674
2022-12-15T21:03:48.504Z,99674
2022-12-15T21:08:48.523Z,99662
2022-12-15T21:13:48.363Z,99654
2022-12-15T21:19:19.905Z,99648
2022-12-15T21:23:48.349Z,99644
2022-12-15T21:28:48.379Z,99632
2022-12-15T21:33:48.504Z,99629
2022-12-15T21:38:48.377Z,99631
2022-12-15T21:43:48.576Z,99622
2022-12-15T21:48:48.356Z,99628
2022-12-15T21:53:48.388Z,99623
2022-12-15T21:58:48.381Z,99605
2022-12-15T22:03:48.500Z,99595
2022-12-15T22:08:48.403Z,99594
2022-12-15T22:13:48.396Z,99596
2022-12-15T22:18:48.487Z,99588
2022-12-15T22:23:48.447Z,99580
2022-12-15T22:28:48.559Z,99574
2022-12-15T22:33:48.379Z,99557
2022-12-15T22:38:48.406Z,99563
2022-12-15T22:43:48.430Z,99559
2022-12-15T22:48:48.385Z,99555
2022-12-15T22:53:48.407Z,99553
2022-12-15T22:58:48.392Z,99543
2022-12-15T23:03:48.429Z,99546
2022-12-15T23:08:52.478Z,99540
2022-12-15T23:13:48.598Z,99537
2022-12-15T23:18:48.440Z,99532
2022-12-15T23:23:48.554Z,99532
2022-12-15T23:28:48.448Z,99515
2022-12-15T23:33:48.543Z,99506
2022-12-15T23:38:48.425Z,99500
2022-12-15T23:43:48.521Z,99489
2022-12-15T23:48:48.409Z,99485
2022-12-15T23:53:48.433Z,99487
2022-12-15T23:58:48.528Z,99483
